createdAt,value
2023-04-12T00:01:12.708Z,98774.88
2023-04-12T00:03:39.909Z,98779.81
2023-04-12T00:06:07.952Z,98781.06
2023-04-12T00:08:35.140Z,98779.59
2023-04-12T00:11:03.742Z,98786.38
2023-04-12T00:13:31.194Z,98780.56
2023-04-12T00:15:58.960Z,98775.59
2023-04-12T00:18:26.304Z,98781.97
2023-04-12T00:20:55.817Z,98773.97
2023-04-12T00:23:22.983Z,98770.13
2023-04-12T00:25:50.618Z,98770.56
2023-04-12T00:28:17.929Z,98770.63
2023-04-12T00:30:45.997Z,98771.00
2023-04-12T00:33:13.176Z,98767.03
2023-04-12T00:35:40.684Z,98769.84
2023-04-12T00:38:10.851Z,98773.09
2023-04-12T00:40:43.225Z,98763.47
2023-04-12T00:43:15.316Z,98769.38
2023-04-12T00:45:42.864Z,98771.09
2023-04-12T00:48:10.936Z,98762.22
2023-04-12T00:50:41.634Z,98766.72
2023-04-12T00:53:11.787Z,98772.19
2023-04-12T00:55:45.627Z,98771.88
2023-04-12T00:58:14.412Z,98768.94
2023-04-12T01:00:44.834Z,98770.19
2023-04-12T01:03:13.782Z,98764.72
2023-04-12T01:06:10.479Z,98759.63
2023-04-12T01:09:19.059Z,98763.75
2023-04-12T01:12:30.574Z,98759.75
2023-04-12T01:15:12.072Z,98768.75
2023-04-12T01:18:09.702Z,98765.50
2023-04-12T01:20:45.091Z,98772.91
2023-04-12T01:23:47.828Z,98774.53
2023-04-12T01:26:44.235Z,98765.50
2023-04-12T01:29:15.593Z,98766.34
2023-04-12T01:31:53.035Z,98769.41
2023-04-12T01:34:26.318Z,98774.69
2023-04-12T01:36:55.662Z,98771.56
2023-04-12T01:39:23.356Z,98772.03
2023-04-12T01:41:50.869Z,98769.06
2023-04-12T01:44:19.209Z,98778.34
2023-04-12T01:46:48.010Z,98772.81
2023-04-12T01:49:18.166Z,98772.75
2023-04-12T01:51:58.373Z,98773.78
2023-04-12T01:54:30.974Z,98771.72
2023-04-12T01:57:03.819Z,98777.47
2023-04-12T01:59:40.940Z,98770.09
2023-04-12T02:02:11.985Z,98769.34
2023-04-12T02:04:42.788Z,98772.22
2023-04-12T02:07:09.960Z,98778.03
2023-04-12T02:09:38.764Z,98777.41
2023-04-12T02:12:07.519Z,98770.66
2023-04-12T02:14:36.780Z,98776.84
2023-04-12T02:17:05.418Z,98770.91
2023-04-12T02:19:33.313Z,98773.59
2023-04-12T02:22:02.377Z,98775.06
2023-04-12T02:24:30.347Z,98773.59
2023-04-12T02:26:59.103Z,98773.59
2023-04-12T02:29:27.347Z,98774.00
2023-04-12T02:31:54.444Z,98767.09
2023-04-12T02:34:24.238Z,98771.94
2023-04-12T02:36:59.216Z,98761.03
2023-04-12T02:39:29.141Z,98764.13
2023-04-12T02:41:56.962Z,98766.63
2023-04-12T02:44:24.875Z,98764.44
2023-04-12T02:47:08.454Z,98764.34
2023-04-12T02:49:36.647Z,98768.03
2023-04-12T02:52:04.913Z,98768.69
2023-04-12T02:54:40.283Z,98765.00
2023-04-12T02:57:12.764Z,98768.69
2023-04-12T02:59:46.548Z,98765.78
2023-04-12T03:02:25.965Z,98761.94
2023-04-12T03:04:58.760Z,98773.16
2023-04-12T03:07:38.709Z,98769.44
2023-04-12T03:10:07.923Z,98771.91
2023-04-12T03:12:39.732Z,98771.09
2023-04-12T03:15:15.892Z,98779.66
2023-04-12T03:17:47.171Z,98771.09
2023-04-12T03:20:17.178Z,98771.94
2023-04-12T03:22:51.658Z,98766.25
2023-04-12T03:25:19.162Z,98771.78
2023-04-12T03:27:53.466Z,98769.75
2023-04-12T03:30:25.526Z,98769.94
2023-04-12T03:32:55.705Z,98774.91
2023-04-12T03:35:23.703Z,98770.81
2023-04-12T03:37:52.233Z,98775.75
2023-04-12T03:40:19.549Z,98770.44
2023-04-12T03:42:55.020Z,98773.69
2023-04-12T03:45:22.491Z,98769.00
2023-04-12T03:47:52.954Z,98775.31
2023-04-12T03:50:22.438Z,98772.66
2023-04-12T03:52:55.967Z,98774.13
2023-04-12T03:55:29.100Z,98779.88
2023-04-12T03:57:57.743Z,98778.22
2023-04-12T04:00:34.334Z,98778.22
2023-04-12T04:03:09.601Z,98773.34
2023-04-12T04:05:58.475Z,98775.22
2023-04-12T04:08:27.392Z,98771.75
2023-04-12T04:11:00.876Z,98770.97
2023-04-12T04:13:33.910Z,98767.72
2023-04-12T04:16:09.821Z,98762.34
2023-04-12T04:18:38.696Z,98769.28
2023-04-12T04:21:08.966Z,98771.75
2023-04-12T04:23:39.695Z,98773.81
2023-04-12T04:26:11.790Z,98773.34
2023-04-12T04:28:47.029Z,98777.00
2023-04-12T04:31:19.072Z,98775.75
2023-04-12T04:33:50.797Z,98784.75
2023-04-12T04:36:20.656Z,98779.88
2023-04-12T04:38:52.736Z,98787.28
2023-04-12T04:41:39.358Z,98788.09
2023-04-12T04:44:09.410Z,98788.03
2023-04-12T04:46:39.659Z,98778.22
2023-04-12T04:49:07.108Z,98781.94
2023-04-12T04:51:34.537Z,98783.97
2023-04-12T04:54:04.215Z,98788.09
2023-04-12T04:56:32.734Z,98796.31
2023-04-12T04:59:00.067Z,98791.34
2023-04-12T05:01:32.008Z,98792.41
2023-04-12T05:04:04.358Z,98797.72
2023-04-12T05:06:32.428Z,98795.44
2023-04-12T05:09:02.303Z,98798.50
2023-04-12T05:11:33.318Z,98795.06
2023-04-12T05:16:52.637Z,98801.78
2023-04-12T05:19:19.701Z,98800.97
2023-04-12T05:21:47.407Z,98793.00
2023-04-12T05:24:14.582Z,98797.25
2023-04-12T05:26:45.222Z,98803.19
2023-04-12T05:29:14.408Z,98808.34
2023-04-12T05:31:42.611Z,98810.38
2023-04-12T05:34:18.895Z,98806.75
2023-04-12T05:36:53.003Z,98808.59
2023-04-12T05:39:22.425Z,98806.97
2023-04-12T05:41:51.743Z,98804.53
2023-04-12T05:44:19.260Z,98811.91
2023-04-12T05:46:47.812Z,98809.00
2023-04-12T05:49:16.151Z,98802.69
2023-04-12T05:51:43.565Z,98814.75
2023-04-12T05:54:21.236Z,98807.41
2023-04-12T05:56:54.345Z,98810.25
2023-04-12T05:59:22.657Z,98821.66
2023-04-12T06:01:50.419Z,98806.97
2023-04-12T06:04:20.182Z,98817.59
2023-04-12T06:06:47.941Z,98810.25
2023-04-12T06:09:15.555Z,98816.75
2023-04-12T06:11:44.414Z,98807.72
2023-04-12T06:14:11.992Z,98803.69
2023-04-12T06:16:41.748Z,98805.28
2023-04-12T06:19:09.075Z,98804.06
2023-04-12T06:21:36.684Z,98804.81
2023-04-12T06:24:04.063Z,98799.06
2023-04-12T06:26:39.014Z,98804.81
2023-04-12T06:29:07.306Z,98801.72
2023-04-12T06:31:35.489Z,98803.97
2023-04-12T06:34:03.252Z,98786.38
2023-04-12T06:36:31.411Z,98807.63
2023-04-12T06:38:58.789Z,98795.75
2023-04-12T06:41:26.247Z,98792.03
2023-04-12T06:44:00.522Z,98787.09
2023-04-12T06:46:30.128Z,98789.09
2023-04-12T06:48:57.548Z,98787.25
2023-04-12T06:51:25.278Z,98781.72
2023-04-12T06:53:52.388Z,98785.41
2023-04-12T06:56:19.790Z,98788.69
2023-04-12T06:58:46.838Z,98784.53
2023-04-12T07:01:14.578Z,98782.25
2023-04-12T07:03:41.882Z,98782.63
2023-04-12T07:06:21.812Z,98783.22
2023-04-12T07:08:52.423Z,98782.38
2023-04-12T07:11:22.536Z,98786.78
2023-04-12T07:13:51.407Z,98783.69
2023-04-12T07:16:19.166Z,98778.97
2023-04-12T07:18:46.518Z,98789.75
2023-04-12T07:21:14.529Z,98790.34
2023-04-12T07:23:41.728Z,98788.47
2023-04-12T07:26:09.202Z,98793.31
2023-04-12T07:28:36.453Z,98793.03
2023-04-12T07:31:07.800Z,98791.13
2023-04-12T07:33:36.549Z,98788.59
2023-04-12T07:36:04.852Z,98794.91
2023-04-12T07:38:32.139Z,98794.84
2023-04-12T07:41:00.008Z,98799.88
2023-04-12T07:43:27.336Z,98803.28
2023-04-12T07:45:56.247Z,98798.69
2023-04-12T07:48:23.491Z,98801.03
2023-04-12T07:50:51.332Z,98798.16
2023-04-12T07:53:24.683Z,98789.84
2023-04-12T07:55:53.024Z,98787.09
2023-04-12T07:58:21.867Z,98796.63
2023-04-12T08:00:50.451Z,98787.06
2023-04-12T08:03:19.418Z,98784.06
2023-04-12T08:05:53.159Z,98783.16
2023-04-12T08:08:22.038Z,98784.00
2023-04-12T08:10:50.596Z,98782.03
2023-04-12T08:13:18.775Z,98769.53
2023-04-12T08:15:47.305Z,98769.78
2023-04-12T08:18:15.520Z,98771.19
2023-04-12T08:20:45.800Z,98765.16
2023-04-12T08:23:13.020Z,98767.09
2023-04-12T08:25:41.744Z,98759.66
2023-04-12T08:28:09.145Z,98764.44
2023-04-12T08:30:36.742Z,98756.75
2023-04-12T08:33:05.512Z,98750.03
2023-04-12T08:35:33.812Z,98753.22
2023-04-12T08:38:07.221Z,98744.34
2023-04-12T08:40:35.745Z,98750.44
2023-04-12T08:43:12.299Z,98751.28
2023-04-12T08:45:39.865Z,98740.78
2023-04-12T08:48:07.079Z,98731.97
2023-04-12T08:50:34.619Z,98729.78
2023-04-12T08:53:02.516Z,98735.38
2023-04-12T08:55:30.541Z,98736.00
2023-04-12T08:57:59.032Z,98727.59
2023-04-12T09:00:27.384Z,98725.38
2023-04-12T09:02:54.788Z,98721.25
2023-04-12T09:05:30.137Z,98721.16
2023-04-12T09:07:58.497Z,98721.00
2023-04-12T09:10:38.547Z,98711.44
2023-04-12T09:13:06.748Z,98701.00
2023-04-12T09:15:35.732Z,98711.88
2023-04-12T09:18:11.644Z,98705.16
2023-04-12T09:20:40.220Z,98695.03
2023-04-12T09:23:26.841Z,98690.16
2023-04-12T09:25:54.308Z,98691.47
2023-04-12T09:28:30.057Z,98695.28
2023-04-12T09:30:59.499Z,98699.06
2023-04-12T09:33:38.846Z,98691.00
2023-04-12T09:36:14.198Z,98682.94
2023-04-12T09:38:58.570Z,98689.63
2023-04-12T09:41:27.545Z,98685.91
2023-04-12T09:43:55.017Z,98680.75
2023-04-12T09:46:23.348Z,98677.50
2023-04-12T09:49:03.315Z,98677.22
2023-04-12T09:51:34.117Z,98680.22
2023-04-12T09:54:04.482Z,98667.25
2023-04-12T09:56:37.846Z,98670.69
2023-04-12T09:59:07.133Z,98663.91
2023-04-12T10:01:41.171Z,98658.84
2023-04-12T10:04:10.146Z,98661.53
2023-04-12T10:06:38.663Z,98654.28
2023-04-12T10:09:08.942Z,98642.66
2023-04-12T10:11:40.507Z,98645.34
2023-04-12T10:14:09.950Z,98637.81
2023-04-12T10:16:41.815Z,98635.09
2023-04-12T10:19:13.084Z,98640.09
2023-04-12T10:21:41.061Z,98633.31
2023-04-12T10:24:09.786Z,98639.78
2023-04-12T10:26:43.823Z,98621.38
2023-04-12T10:29:28.394Z,98620.00
2023-04-12T10:31:58.764Z,98617.75
2023-04-12T10:34:31.395Z,98619.03
2023-04-12T10:37:05.736Z,98609.59
2023-04-12T10:39:43.508Z,98619.03
2023-04-12T10:42:27.849Z,98617.44
2023-04-12T10:45:23.245Z,98618.47
2023-04-12T10:47:59.213Z,98612.97
2023-04-12T10:50:30.387Z,98609.44
2023-04-12T10:53:12.716Z,98611.50
2023-04-12T10:55:41.212Z,98607.50
2023-04-12T10:58:09.325Z,98603.22
2023-04-12T11:00:58.862Z,98600.00
2023-04-12T11:03:29.018Z,98607.03
2023-04-12T11:06:16.219Z,98598.66
2023-04-12T11:09:22.210Z,98603.81
2023-04-12T11:11:50.498Z,98607.06
2023-04-12T11:14:24.406Z,98604.69
2023-04-12T11:17:15.186Z,98593.88
2023-04-12T11:19:52.359Z,98593.88
2023-04-12T11:22:23.469Z,98594.22
2023-04-12T11:24:54.420Z,98587.41
2023-04-12T11:27:23.886Z,98586.25
2023-04-12T11:29:57.357Z,98591.78
2023-04-12T11:32:28.624Z,98590.75
2023-04-12T11:34:58.518Z,98577.00
2023-04-12T11:37:31.351Z,98581.59
2023-04-12T11:40:00.111Z,98576.78
2023-04-12T11:42:29.690Z,98577.81
2023-04-12T11:45:02.393Z,98568.06
2023-04-12T11:47:32.328Z,98573.78
2023-04-12T11:50:00.062Z,98559.44
2023-04-12T11:52:33.865Z,98566.47
2023-04-12T11:55:06.502Z,98562.00
2023-04-12T11:57:34.589Z,98565.47
2023-04-12T12:00:06.907Z,98561.75
2023-04-12T12:02:46.657Z,98566.28
2023-04-12T12:05:21.550Z,98562.13
2023-04-12T12:07:49.621Z,98559.06
2023-04-12T12:10:32.497Z,98550.94
2023-04-12T12:13:14.104Z,98553.94
2023-04-12T12:15:45.845Z,98548.19
2023-04-12T12:18:13.356Z,98553.53
2023-04-12T12:20:55.666Z,98539.00
2023-04-12T12:23:33.451Z,98537.31
2023-04-12T12:26:17.550Z,98536.69
2023-04-12T12:28:54.393Z,98535.53
2023-04-12T12:31:28.423Z,98538.16
2023-04-12T12:33:58.949Z,98528.31
2023-04-12T12:36:36.227Z,98527.69
2023-04-12T12:39:10.511Z,98518.94
2023-04-12T12:41:39.812Z,98519.88
2023-04-12T12:44:08.155Z,98517.69
2023-04-12T12:46:52.043Z,98513.38
2023-04-12T12:49:22.777Z,98511.63
2023-04-12T12:51:51.464Z,98509.94
2023-04-12T12:54:36.035Z,98500.53
2023-04-12T12:57:06.540Z,98497.75
2023-04-12T12:59:33.648Z,98499.06
2023-04-12T13:02:01.604Z,98499.56
2023-04-12T13:04:29.248Z,98492.00
2023-04-12T13:06:56.792Z,98496.00
2023-04-12T13:09:23.946Z,98494.63
2023-04-12T13:11:51.575Z,98481.03
2023-04-12T13:14:18.744Z,98487.44
2023-04-12T13:16:48.407Z,98480.41
2023-04-12T13:19:16.153Z,98481.03
2023-04-12T13:21:43.567Z,98484.81
2023-04-12T13:24:11.217Z,98479.81
2023-04-12T13:26:38.984Z,98475.44
2023-04-12T13:29:06.421Z,98469.44
2023-04-12T13:31:33.933Z,98473.75
2023-04-12T13:34:03.380Z,98465.06
2023-04-12T13:36:31.046Z,98472.06
2023-04-12T13:38:58.229Z,98463.66
2023-04-12T13:41:26.237Z,98457.44
2023-04-12T13:43:53.284Z,98462.03
2023-04-12T13:46:21.189Z,98460.97
2023-04-12T13:48:48.370Z,98462.84
2023-04-12T13:51:15.895Z,98453.13
2023-04-12T13:53:42.990Z,98458.84
2023-04-12T13:56:12.042Z,98453.63
2023-04-12T13:58:41.899Z,98445.41
2023-04-12T14:01:10.266Z,98454.59
2023-04-12T14:03:37.604Z,98453.47
2023-04-12T14:06:07.509Z,98443.69
2023-04-12T14:08:34.677Z,98451.72
2023-04-12T14:11:06.460Z,98444.03
2023-04-12T14:13:33.717Z,98442.13
2023-04-12T14:16:01.118Z,98449.03
2023-04-12T14:18:28.457Z,98446.75
2023-04-12T14:20:57.612Z,98440.34
2023-04-12T14:23:26.118Z,98443.88
2023-04-12T14:25:54.308Z,98439.03
2023-04-12T14:28:21.913Z,98448.34
2023-04-12T14:30:51.998Z,98441.22
2023-04-12T14:33:19.584Z,98433.09
2023-04-12T14:35:47.212Z,98432.69
2023-04-12T14:38:14.481Z,98437.25
2023-04-12T14:40:42.108Z,98435.28
2023-04-12T14:43:09.407Z,98434.50
2023-04-12T14:45:40.055Z,98435.72
2023-04-12T14:48:07.464Z,98434.59
2023-04-12T14:50:35.055Z,98429.09
2023-04-12T14:53:05.452Z,98435.91
2023-04-12T14:55:33.151Z,98434.91
2023-04-12T14:58:00.376Z,98437.81
2023-04-12T15:00:29.828Z,98432.72
2023-04-12T15:03:00.929Z,98426.69
2023-04-12T15:05:30.563Z,98423.88
2023-04-12T15:07:58.745Z,98411.84
2023-04-12T15:10:26.662Z,98416.47
2023-04-12T15:12:54.333Z,98414.13
2023-04-12T15:15:22.557Z,98414.03
2023-04-12T15:17:49.812Z,98402.53
2023-04-12T15:20:17.394Z,98394.81
2023-04-12T15:22:44.616Z,98390.69
2023-04-12T15:25:12.179Z,98389.47
2023-04-12T15:27:39.463Z,98385.09
2023-04-12T15:30:12.837Z,98395.72
2023-04-12T15:32:42.525Z,98392.00
2023-04-12T15:35:25.393Z,98393.25
2023-04-12T15:37:55.140Z,98390.09
2023-04-12T15:40:23.083Z,98386.72
2023-04-12T15:42:50.649Z,98389.75
2023-04-12T15:45:18.212Z,98387.84
2023-04-12T15:47:46.021Z,98378.91
2023-04-12T15:50:14.155Z,98371.56
2023-04-12T15:52:43.104Z,98370.75
2023-04-12T15:55:11.582Z,98371.28
2023-04-12T15:57:39.187Z,98370.00
2023-04-12T16:00:20.669Z,98366.06
2023-04-12T16:02:53.703Z,98367.59
2023-04-12T16:05:22.320Z,98371.22
2023-04-12T16:07:51.122Z,98364.66
2023-04-12T16:10:23.837Z,98372.59
2023-04-12T16:12:52.831Z,98367.94
2023-04-12T16:15:21.678Z,98371.31
2023-04-12T16:17:53.527Z,98372.63
2023-04-12T16:20:22.174Z,98370.41
2023-04-12T16:22:55.068Z,98370.59
2023-04-12T16:25:24.501Z,98368.50
2023-04-12T16:27:52.347Z,98369.25
2023-04-12T16:30:20.140Z,98361.75
2023-04-12T16:32:47.783Z,98356.94
2023-04-12T16:35:16.484Z,98352.75
2023-04-12T16:37:45.485Z,98353.38
2023-04-12T16:40:13.408Z,98345.50
2023-04-12T16:42:44.691Z,98347.59
2023-04-12T16:45:15.849Z,98357.06
2023-04-12T16:47:45.857Z,98360.72
2023-04-12T16:50:13.842Z,98360.75
2023-04-12T16:52:41.959Z,98365.63
2023-04-12T16:55:13.370Z,98360.75
2023-04-12T16:57:42.824Z,98358.00
2023-04-12T17:00:19.596Z,98355.16
2023-04-12T17:02:53.198Z,98356.41
2023-04-12T17:05:23.087Z,98372.69
2023-04-12T17:07:54.131Z,98361.53
2023-04-12T17:10:24.562Z,98364.81
2023-04-12T17:12:55.524Z,98358.38
2023-04-12T17:15:25.311Z,98354.66
2023-04-12T17:18:12.133Z,98359.59
2023-04-12T17:20:39.574Z,98354.53
2023-04-12T17:23:07.327Z,98344.63
2023-04-12T17:25:35.762Z,98354.66
2023-04-12T17:28:03.436Z,98347.94
2023-04-12T17:30:31.405Z,98352.31
2023-04-12T17:33:01.359Z,98352.34
2023-04-12T17:35:29.866Z,98351.88
2023-04-12T17:37:57.558Z,98350.78
2023-04-12T17:40:25.048Z,98355.13
2023-04-12T17:42:52.430Z,98360.56
2023-04-12T17:45:21.746Z,98360.06
2023-04-12T17:47:49.651Z,98357.13
2023-04-12T17:50:17.279Z,98359.59
2023-04-12T17:52:44.575Z,98363.94
2023-04-12T17:55:13.235Z,98358.59
2023-04-12T17:57:41.822Z,98362.38
2023-04-12T18:00:11.832Z,98363.22
2023-04-12T18:02:46.734Z,98368.84
2023-04-12T18:05:15.433Z,98366.41
2023-04-12T18:07:42.681Z,98371.00
2023-04-12T18:10:12.614Z,98383.34
2023-04-12T18:12:40.887Z,98378.00
2023-04-12T18:15:09.526Z,98379.34
2023-04-12T18:17:37.279Z,98380.16
2023-04-12T18:20:10.132Z,98373.13
2023-04-12T18:22:38.778Z,98374.75
2023-04-12T18:25:08.073Z,98374.97
2023-04-12T18:27:35.655Z,98374.16
2023-04-12T18:31:24.801Z,98369.81
2023-04-12T18:33:53.579Z,98377.84
2023-04-12T18:36:20.954Z,98382.06
2023-04-12T18:38:48.747Z,98376.97
2023-04-12T18:41:15.982Z,98375.59
2023-04-12T18:43:43.501Z,98372.34
2023-04-12T18:46:18.780Z,98375.78
2023-04-12T18:48:48.169Z,98384.03
2023-04-12T18:51:15.845Z,98382.38
2023-04-12T18:53:43.830Z,98374.25
2023-04-12T18:56:12.208Z,98369.91
2023-04-12T18:58:53.802Z,98368.00
2023-04-12T19:01:24.962Z,98363.97
2023-04-12T19:03:53.014Z,98358.00
2023-04-12T19:06:20.297Z,98363.06
2023-04-12T19:08:49.688Z,98363.78
2023-04-12T19:11:17.000Z,98355.47
2023-04-12T19:13:44.912Z,98363.97
2023-04-12T19:16:12.715Z,98360.97
2023-04-12T19:18:40.322Z,98366.03
2023-04-12T19:21:07.899Z,98368.66
2023-04-12T19:23:37.174Z,98372.16
2023-04-12T19:26:05.559Z,98371.09
2023-04-12T19:28:33.065Z,98366.72
2023-04-12T19:31:05.449Z,98364.81
2023-04-12T19:33:33.143Z,98366.63
2023-04-12T19:36:04.491Z,98366.84
2023-04-12T19:38:32.128Z,98359.56
2023-04-12T19:40:59.168Z,98365.91
2023-04-12T19:43:26.610Z,98360.50
2023-04-12T19:45:54.047Z,98358.06
2023-04-12T19:48:21.682Z,98349.16
2023-04-12T19:50:49.037Z,98348.28
2023-04-12T19:53:18.147Z,98339.44
2023-04-12T19:55:45.424Z,98343.09
2023-04-12T19:58:13.674Z,98347.84
2023-04-12T20:00:41.250Z,98350.44
2023-04-12T20:03:09.523Z,98358.91
2023-04-12T20:05:37.551Z,98356.66
2023-04-12T20:08:05.007Z,98356.34
2023-04-12T20:10:32.759Z,98344.25
2023-04-12T20:13:00.447Z,98358.84
2023-04-12T20:15:31.332Z,98358.75
2023-04-12T20:17:58.926Z,98351.75
2023-04-12T20:20:26.307Z,98355.41
2023-04-12T20:22:53.621Z,98351.34
2023-04-12T20:25:20.919Z,98356.13
2023-04-12T20:27:52.201Z,98353.41
2023-04-12T20:30:21.161Z,98351.69
2023-04-12T20:32:54.192Z,98360.69
2023-04-12T20:35:22.132Z,98354.69
2023-04-12T20:37:51.199Z,98353.25
2023-04-12T20:40:23.181Z,98350.72
2023-04-12T20:42:51.370Z,98349.88
2023-04-12T20:45:18.823Z,98349.53
2023-04-12T20:47:46.581Z,98346.28
2023-04-12T20:50:13.948Z,98351.06
2023-04-12T20:52:41.739Z,98344.59
2023-04-12T20:55:11.030Z,98341.84
2023-04-12T20:57:38.641Z,98346.31
2023-04-12T21:00:17.517Z,98344.38
2023-04-12T21:02:46.307Z,98340.47
2023-04-12T21:05:17.662Z,98345.16
2023-04-12T21:07:46.629Z,98339.16
2023-04-12T21:10:15.028Z,98332.09
2023-04-12T21:12:44.845Z,98340.59
2023-04-12T21:15:13.188Z,98340.53
2023-04-12T21:17:40.608Z,98338.31
2023-04-12T21:20:17.434Z,98343.91
2023-04-12T21:22:47.453Z,98341.94
2023-04-12T21:25:16.508Z,98345.56
2023-04-12T21:27:46.229Z,98345.22
2023-04-12T21:30:14.538Z,98337.47
2023-04-12T21:32:43.086Z,98337.38
2023-04-12T21:35:11.313Z,98327.66
2023-04-12T21:37:39.909Z,98327.59
2023-04-12T21:40:09.452Z,98335.00
2023-04-12T21:42:38.055Z,98335.94
2023-04-12T21:45:08.565Z,98334.31
2023-04-12T21:47:36.630Z,98331.00
2023-04-12T21:50:04.449Z,98334.13
2023-04-12T21:52:31.846Z,98335.66
2023-04-12T21:54:58.971Z,98324.91
2023-04-12T21:57:33.332Z,98327.44
2023-04-12T22:00:04.502Z,98328.72
2023-04-12T22:02:40.438Z,98332.09
2023-04-12T22:05:08.570Z,98326.09
2023-04-12T22:07:40.771Z,98321.25
2023-04-12T22:10:09.353Z,98309.09
2023-04-12T22:12:37.338Z,98312.47
2023-04-12T22:15:05.772Z,98313.34
2023-04-12T22:17:33.408Z,98306.91
2023-04-12T22:20:00.844Z,98316.41
2023-04-12T22:22:29.220Z,98320.09
2023-04-12T22:24:56.451Z,98319.41
2023-04-12T22:27:26.347Z,98312.44
2023-04-12T22:29:53.690Z,98306.44
2023-04-12T22:32:21.151Z,98305.31
2023-04-12T22:34:57.764Z,98308.19
2023-04-12T22:37:34.049Z,98309.69
2023-04-12T22:40:06.391Z,98310.38
2023-04-12T22:42:33.834Z,98307.97
2023-04-12T22:45:00.979Z,98310.25
2023-04-12T22:47:30.604Z,98307.94
2023-04-12T22:50:02.290Z,98310.84
2023-04-12T22:52:33.486Z,98312.34
2023-04-12T22:55:00.786Z,98315.69
2023-04-12T22:57:28.477Z,98315.34
2023-04-12T22:59:55.691Z,98312.31
2023-04-12T23:02:23.413Z,98302.63
2023-04-12T23:04:51.823Z,98300.88
2023-04-12T23:07:19.274Z,98305.47
2023-04-12T23:09:46.467Z,98299.00
2023-04-12T23:12:14.388Z,98291.13
2023-04-12T23:14:41.574Z,98287.53
2023-04-12T23:17:08.997Z,98289.03
2023-04-12T23:19:36.266Z,98269.97
2023-04-12T23:22:04.983Z,98270.41
2023-04-12T23:24:32.102Z,98257.81
2023-04-12T23:27:00.380Z,98255.84
2023-04-12T23:29:28.276Z,98255.47
2023-04-12T23:31:55.712Z,98250.03
2023-04-12T23:34:22.935Z,98246.22
2023-04-12T23:36:50.558Z,98244.81
2023-04-12T23:39:18.187Z,98238.13
2023-04-12T23:41:46.670Z,98245.50
2023-04-12T23:44:14.267Z,98242.72
2023-04-12T23:46:41.965Z,98246.38
2023-04-12T23:49:09.287Z,98234.59
2023-04-12T23:51:36.962Z,98234.25
2023-04-12T23:54:04.290Z,98232.84
2023-04-12T23:56:32.028Z,98229.03
2023-04-12T23:58:59.130Z,98221.31
